Flight Track Log - Related Links

Times and Time Zones

All times are in EST time to prevent confusion due to time zone crossing. See the FSR411 flight status page for this flight to view local times or setup timezone preferences in your user account.

Time Position Orientation Groundspeed Altitude Reporting Facility
EST Latitude Longitude Course Direction KTS MPH feet Rate Location/Type
Tue 06:24:46 PM 41.7667 -87.8167 186° South 217 250 3,700  Level Chicago TRACON
Tue 06:25:46 PM 41.7142 -87.8486 204° Southwest 258 297 4,000 934 Climbing Chicago Center
Tue 06:26:48 PM 41.6483 -87.8850 202° Southwest 255 293 5,600 2,323 Climbing Chicago Center
Tue 06:27:50 PM 41.5811 -87.9261 205° Southwest 261 300 8,800 3,000 Climbing Chicago Center
Tue 06:28:52 PM 41.5103 -87.9686 204° Southwest 274 315 11,800 1,488 Climbing Chicago Center
Tue 06:29:55 PM 41.4281 -88.0192 205° Southwest 309 356 11,900 48 Climbing Chicago Center
Tue 06:30:00 PM 41.3412 -87.8889 186° South  Level Estimated
Tue 06:30:57 PM 41.3294 -88.0572 196° South 352 405 11,900  Level Chicago Center
Tue 06:31:59 PM 41.2319 -88.0875 193° South 359 413 11,900  Level Chicago Center
Tue 06:33:01 PM 41.1111 -88.1047 186° South 365 420 11,900  Level Chicago Center
Tue 06:34:03 PM 41.0108 -88.1214 187° South 364 419 11,900 48 Level Chicago Center
Tue 06:35:05 PM 40.9103 -88.1367 187° South 363 418 12,000 48 Climbing Chicago Center
Tue 06:36:07 PM 40.8111 -88.1531 187° South 360 414 12,000  Level Chicago Center
Tue 06:37:09 PM 40.7117 -88.1683 187° South 361 415 12,000  Level Chicago Center
Tue 06:38:11 PM 40.6122 -88.1850 187° South 361 415 12,000 -484 Level Chicago Center
Tue 06:39:13 PM 40.4942 -88.2042 187° South 358 412 11,000 -528 Descending Chicago Center
Tue 06:40:16 PM 40.4003 -88.2197 187° South 348 400 10,900 -1,008 Descending Chicago Center
Tue 06:41:18 PM 40.3197 -88.2108 175° South 304 350 8,900 -2,177 Descending Chicago Center
Tue 06:42:20 PM 40.2400 -88.2028 176° South 290 334 6,400 -2,323 Descending Chicago Center
Tue 06:43:22 PM 40.1603 -88.1961 176° South 284 327 4,100 -1,258 Descending Chicago Center
Tue 06:44:24 PM 40.0750 -88.1861 175° South 280 322 3,800 -290 Descending Chicago Center
Tue 06:46:00 PM 40.0333 -88.2667 180° South  Level FlightAware Approximate
Tue 06:53:00 PM 40.0388 -88.2778 180° South  Level Estimated
Tue 06:54:00 PM 40.0388 -88.2778 180° South  Level Estimated
Tue 06:55:00 PM 40.0388 -88.2778 180° South  Level Estimated

Login

Don't have an account? Register now (free) for customized features, flight alerts, and more!